Ship Status Report: callsign AMOUK35

sailwx.info

Track history (hours):
 
Tides and Currents Weather Stations Pressure Air Temp Water Temp Dewpoint Dewpoint Depression Visibility Wind Speed Wind Dir Waves Ship Positions

Callsign AMOUK35 (name unknown)

Last reported at 2016-Jun-26 00:00 UTC. Time now 2016-Jun-26 01:03 UTC.
Position N 59°00' W 003°18'.

Barometer 1017.8 mb
Air temperature 10.6 ° C

Date/timePositionNaut miles runAvg speedWind from/ knotsBaromVisibWave heightAir tempDewpointWater temp
2016-Jun-26 00:00N 59°00' W 003°18'0 0.0 1017.8 10.6
2016-Jun-25 23:00N 59°00' W 003°18'0 0.0 1018.2 11.1 9.8
2016-Jun-25 22:00N 59°00' W 003°18'0 0.0 1018.6 11.4 9.6
2016-Jun-25 20:00N 59°00' W 003°18'0 0.0 1018.4 12.8 9.3
2016-Jun-25 19:00N 59°00' W 003°18'0 0.0 1018.3 14.6
2016-Jun-25 18:00N 59°00' W 003°18'0 0.0 1018.4 14.8
2016-Jun-25 17:00N 59°00' W 003°18'0 0.0 1018.6 14.7
2016-Jun-25 16:00N 59°00' W 003°18'0 0.0 1018.9 14.310.1
2016-Jun-25 15:00N 59°00' W 003°18'0 0.0 1019.0 12.710.7
2016-Jun-25 14:00N 59°00' W 003°18'6 6.0 1018.8 14.211.0
2016-Jun-25 13:00N 58°54' W 003°18'0 0.0 1018.7 12.2
2016-Jun-25 12:00N 58°54' W 003°18'9 8.6 1018.5 12.1
2016-Jun-25 11:00N 58°48' W 003°30'6 6.0 1018.4 11.210.2
2016-Jun-25 10:00N 58°42' W 003°30'6 6.0 1018.6 10.7
2016-Jun-25 09:00N 58°36' W 003°30'0 0.0 1018.7 12.4
2016-Jun-25 08:00N 58°36' W 003°30'0 0.0 1018.8 11.510.3
2016-Jun-25 07:00N 58°36' W 003°30'0 0.0 1018.3 11.410.4
2016-Jun-25 06:00N 58°36' W 003°30'0 0.0 1018.0 11.3
2016-Jun-25 05:00N 58°36' W 003°30'0 0.0 1017.8 11.0
2016-Jun-25 04:00N 58°36' W 003°30'0 0.0 1017.5 10.9
2016-Jun-25 03:00N 58°36' W 003°30'0 0.0 1017.2 11.3
2016-Jun-25 02:00N 58°36' W 003°30'0 0.0 1017.3 10.9
2016-Jun-25 01:00N 58°36' W 003°30'0 0.0 1017.3 10.6
2016-Jun-25 00:00N 58°36' W 003°30'0 0.0 1017.5 11.3
2016-Jun-24 23:00N 58°36' W 003°30'0 0.0 1017.3 10.8
2016-Jun-24 22:00N 58°36' W 003°30'0 0.0 1017.2 11.4
2016-Jun-24 21:00N 58°36' W 003°30'0 0.0 1017.1 11.1
2016-Jun-24 20:00N 58°36' W 003°30'0 0.0 1016.6 11.9
2016-Jun-24 19:00N 58°36' W 003°30'0 0.0 1016.4 12.9
2016-Jun-24 18:00N 58°36' W 003°30'0 0.0 1016.2 12.610.8
2016-Jun-24 17:00N 58°36' W 003°30'0 0.0 1016.0 12.8
2016-Jun-24 16:00N 58°36' W 003°30'0 0.0 1015.8 14.4
2016-Jun-24 15:00N 58°36' W 003°30'0 0.0 1015.4 13.4
2016-Jun-24 14:00N 58°36' W 003°30'0 0.0 1015.0 12.5
2016-Jun-24 13:00N 58°36' W 003°30'0 0.0 1014.6 11.9
2016-Jun-24 12:00N 58°36' W 003°30'0 0.0 1014.5 10.510.3
2016-Jun-24 11:00N 58°36' W 003°30'0 0.0 1014.2 10.9
2016-Jun-24 10:00N 58°36' W 003°30'0 0.0 1014.3 11.4
2016-Jun-24 09:00N 58°36' W 003°30'3 3.1 1014.5 10.8
2016-Jun-24 08:00N 58°36' W 003°36'9 9.4 1014.0 9.6
2016-Jun-24 07:00N 58°36' W 003°54'9 9.4 1013.5 9.5
2016-Jun-24 06:00N 58°36' W 004°12'9 8.7 1013.1 9.9
2016-Jun-24 05:00N 58°42' W 004°24'9 9.4 1012.7 10.1
2016-Jun-24 04:00N 58°42' W 004°42'6 6.2 1012.5 10.7
2016-Jun-24 03:00N 58°42' W 004°54'9 8.7 1013.0 11.1
2016-Jun-24 02:00N 58°36' W 005°06'9 8.7 1012.4 11.7
2016-Jun-24 01:00N 58°30' W 005°18'7 6.8 1012.6 13.6
2016-Jun-24 00:00N 58°24' W 005°24'9 8.7 1012.9 12.5
2016-Jun-23 23:00N 58°18' W 005°36'1413.6 1012.8 12.5
2016-Jun-23 22:00N 58°06' W 005°48'9 8.7 1013.1 12.7
2016-Jun-23 21:00N 58°00' W 006°00'7 6.8 1013.2 12.6
2016-Jun-23 20:00N 57°54' W 006°06'1413.6 1013.1 13.0
2016-Jun-23 19:00N 57°42' W 006°18'1111.3 1013.2 13.5
2016-Jun-23 18:00N 57°36' W 006°36'9 8.8 1013.2 13.0
2016-Jun-23 17:00N 57°30' W 006°48'7 6.8 1013.4 13.1
2016-Jun-23 16:00N 57°24' W 006°54'1212.4 1013.5 12.6
2016-Jun-23 15:00N 57°12' W 007°00'9 8.9 1013.8 12.3
2016-Jun-23 14:00N 57°06' W 007°12'7 6.5 1014.1 12.9
2016-Jun-23 13:00N 57°06' W 007°24'0 0.0 1013.6 13.8
2016-Jun-23 12:00N 57°06' W 007°24'0 0.0 1013.5 12.6
2016-Jun-23 11:00N 57°06' W 007°24'7 6.5 1013.6 13.2
2016-Jun-23 10:00N 57°06' W 007°12'6 6.0 1013.4 12.4
2016-Jun-23 09:00N 57°12' W 007°12'1212.0 1013.4 11.9
2016-Jun-23 08:00N 57°24' W 007°12'3 3.2 1012.9 11.7
2016-Jun-23 07:00N 57°24' W 007°18'0 0.0 1013.2 13.3
2016-Jun-23 06:00N 57°24' W 007°18'0 0.0 1013.2 12.7
2016-Jun-23 05:00N 57°24' W 007°18'0 0.0 1013.0 12.8
2016-Jun-23 04:00N 57°24' W 007°18'0 0.0 1013.2 12.8
2016-Jun-23 03:00N 57°24' W 007°18'0 0.0 1013.3 13.1
2016-Jun-23 02:00N 57°24' W 007°18'0 0.0 1013.4 13.3
2016-Jun-23 01:00N 57°24' W 007°18'0 0.0 1013.3 12.8
2016-Jun-23 00:00N 57°24' W 007°18'0 0.0 1013.4 12.8
2016-Jun-22 23:00N 57°24' W 007°18'0 0.0 1013.1 12.9
2016-Jun-22 22:00N 57°24' W 007°18'0 0.0 1012.8 13.4
2016-Jun-22 21:00N 57°24' W 007°18'0 0.0 1012.4 13.8
2016-Jun-22 20:00N 57°24' W 007°18'0 0.0 1012.1 14.4
2016-Jun-22 19:00N 57°24' W 007°18'0 0.0 1011.8 14.7
2016-Jun-22 18:00N 57°24' W 007°18'0 0.0 1011.6 14.6
2016-Jun-22 17:00N 57°24' W 007°18'0 0.0 1011.7 15.1
2016-Jun-22 16:00N 57°24' W 007°18'3 3.2 1011.7 15.9
2016-Jun-22 15:00N 57°24' W 007°12'0 0.0 1011.3 14.0
2016-Jun-22 14:00N 57°24' W 007°12'0 0.0 1011.0 13.9
2016-Jun-22 13:00N 57°24' W 007°12'0 0.0 1010.9 13.7
2016-Jun-22 12:00N 57°24' W 007°12'0 0.0 1010.5 12.6
2016-Jun-22 11:00N 57°24' W 007°12'6 6.0 1009.9 12.1
2016-Jun-22 10:00N 57°30' W 007°12'0 0.0 1009.6 11.8
2016-Jun-22 09:00N 57°30' W 007°12'3 3.2 1009.7 13.4
2016-Jun-22 08:00N 57°30' W 007°06'6 6.0 1009.2 11.6
2016-Jun-22 07:00N 57°36' W 007°06'0 0.0 1009.0 12.5
2016-Jun-22 06:00N 57°36' W 007°06'0 0.0 1008.6 12.1
2016-Jun-22 05:00N 57°36' W 007°06'0 0.0 1008.2 11.6
2016-Jun-22 04:00N 57°36' W 007°06'0 0.0 1008.1 11.8
2016-Jun-22 03:00N 57°36' W 007°06'0 0.0 1007.8 12.0
2016-Jun-22 02:00N 57°36' W 007°06'0 0.0 1007.8 12.1
2016-Jun-22 01:00N 57°36' W 007°06'0 0.0 1007.9 11.9
2016-Jun-22 00:00N 57°36' W 007°06'0 0.0 1007.9 12.0
2016-Jun-21 23:00N 57°36' W 007°06'0 0.0 1007.7 12.4
2016-Jun-21 22:00N 57°36' W 007°06'0 0.0 1007.8 12.3
2016-Jun-21 21:00N 57°36' W 007°06'0 0.0 1007.7 12.3
2016-Jun-21 20:00N 57°36' W 007°06'0 0.0 1007.5 12.1
2016-Jun-21 19:00N 57°36' W 007°06'0 0.0 1007.2 12.3
2016-Jun-21 17:00N 57°36' W 007°06'0 0.0 1007.6 12.2
2016-Jun-21 16:00N 57°36' W 007°06'0 0.0 1007.6 13.1
2016-Jun-21 15:00N 57°36' W 007°06'0 0.0 1007.5 12.7
2016-Jun-21 14:00N 57°36' W 007°06'0 0.0 1007.2 12.4
2016-Jun-21 13:00N 57°36' W 007°06'0 0.0 1006.6 14.7
2016-Jun-21 12:00N 57°36' W 007°06'0 0.0 1006.5 14.1
2016-Jun-21 11:00N 57°36' W 007°06'0 0.0 1006.1 13.3
2016-Jun-21 10:00N 57°36' W 007°06'0 0.0 1005.9 11.9
2016-Jun-21 09:00N 57°36' W 007°06'0 0.0 1006.1 11.6
2016-Jun-21 08:00N 57°36' W 007°06'0 0.0 1005.7 11.5
2016-Jun-21 07:00N 57°36' W 007°06'0 0.0 1005.9 11.5
2016-Jun-21 06:00N 57°36' W 007°06'0 0.0 1006.1 11.5
2016-Jun-21 05:00N 57°36' W 007°06'0 0.0 1006.4 11.6
2016-Jun-21 04:00N 57°36' W 007°06'0 0.0 1006.8 11.4
2016-Jun-21 03:00N 57°36' W 007°06'0 0.0 1007.2 11.5
2016-Jun-21 02:00N 57°36' W 007°06'0 0.0 1007.7 11.3
2016-Jun-21 01:00N 57°36' W 007°06'0 0.0 1008.3 11.3
2016-Jun-21 00:00N 57°36' W 007°06'0 0.0 1008.4 11.6
2016-Jun-20 23:00N 57°36' W 007°06'0 0.0 1008.3 12.0
2016-Jun-20 22:00N 57°36' W 007°06'0 0.0 1008.2 11.7
2016-Jun-20 21:00N 57°36' W 007°06'0 0.0 1008.2 11.3
2016-Jun-20 20:00N 57°36' W 007°06'0 0.0 1007.8 11.6
2016-Jun-20 19:00N 57°36' W 007°06'0 0.0 1007.4 11.5
2016-Jun-20 18:00N 57°36' W 007°06'0 0.0 1006.9 12.5
2016-Jun-20 17:00N 57°36' W 007°06'0 0.0 1006.2 12.5
2016-Jun-20 16:00N 57°36' W 007°06'9 8.8 1006.0 12.6
2016-Jun-20 15:00N 57°42' W 006°54'9 8.8 1004.9 12.2
2016-Jun-20 14:00N 57°48' W 006°42'9 8.8 1004.5 12.2
2016-Jun-20 13:00N 57°54' W 006°30'3 3.2 1004.2 11.6
2016-Jun-20 12:00N 57°54' W 006°24'0 0.0 1003.4 11.1
2016-Jun-20 11:00N 57°54' W 006°24'7 6.8 1003.1 11.1
2016-Jun-20 10:00N 58°00' W 006°18'1212.0 1001.5 11.8
2016-Jun-20 09:00N 58°12' W 006°18'3 3.2 1001.3 12.5
2016-Jun-20 08:00N 58°12' W 006°24'0 0.0 1001.4 12.6
2016-Jun-20 07:00N 58°12' W 006°24'0 0.0 1001.1 11.5
2016-Jun-20 06:00N 58°12' W 006°24'0 0.0 1000.6 11.210.3
2016-Jun-20 05:00N 58°12' W 006°24'0 0.0 1000.5 11.610.5
2016-Jun-20 04:00N 58°12' W 006°24'0 0.0 1000.4 11.1
2016-Jun-20 03:00N 58°12' W 006°24'0 0.0 1000.4 11.3
2016-Jun-20 02:00N 58°12' W 006°24'0 0.0 1000.5 11.5
2016-Jun-20 01:00N 58°12' W 006°24'0 0.0 1000.4 11.8
2016-Jun-20 00:00N 58°12' W 006°24'0 0.0 999.7 12.2
2016-Jun-19 23:00N 58°12' W 006°24'0 0.0 999.3 12.7
2016-Jun-19 22:00N 58°12' W 006°24'0 0.0 999.5 13.0
2016-Jun-19 21:00N 58°12' W 006°24'0 0.0 1000.3 12.412.1
2016-Jun-19 20:00N 58°12' W 006°24'0 0.0 1001.0 12.011.6
2016-Jun-19 19:00N 58°12' W 006°24'0 0.0 1002.3 12.6
2016-Jun-19 17:00N 58°12' W 006°24'0 0.0 1005.4 12.6
2016-Jun-19 16:00N 58°12' W 006°24'0 0.0 1007.2 12.9
2016-Jun-19 15:00N 58°12' W 006°24'6 6.3 1008.8 14.0
2016-Jun-19 14:00N 58°12' W 006°12'7 6.8 1010.2 13.3
2016-Jun-19 13:00N 58°18' W 006°06'1212.0 1011.6 12.4
2016-Jun-19 12:00N 58°30' W 006°06'6 6.3 1012.2 12.4
2016-Jun-19 11:00N 58°30' W 006°18'1111.2 1013.3 12.2
2016-Jun-19 10:00N 58°24' W 006°36'6 6.3 1013.3 11.9
2016-Jun-19 09:00N 58°24' W 006°48'6 6.0 1013.9 11.7
2016-Jun-19 08:00N 58°18' W 006°48'6 6.0 1014.1 11.7
2016-Jun-19 07:00N 58°12' W 006°48'0 0.0 1015.2 11.0
2016-Jun-19 06:00N 58°12' W 006°48'0 0.0 1015.3 10.7
2016-Jun-19 05:00N 58°12' W 006°48'0 0.0 1015.9 11.1
2016-Jun-19 04:00N 58°12' W 006°48'0 0.0 1016.8 11.2
2016-Jun-19 03:00N 58°12' W 006°48'0 0.0 1017.2 11.3
2016-Jun-19 02:00N 58°12' W 006°48'0 0.0 1018.0 11.3
2016-Jun-19 01:00N 58°12' W 006°48'0 0.0 1018.4 11.5
2016-Jun-19 00:00N 58°12' W 006°48'0 0.0 1018.7 11.5
2016-Jun-18 23:00N 58°12' W 006°48'0 0.0 1019.0 11.5
2016-Jun-18 22:00N 58°12' W 006°48'0 0.0 1019.3 11.7
2016-Jun-18 21:00N 58°12' W 006°48'0 0.0 1019.3 12.1
2016-Jun-18 20:00N 58°12' W 006°48'0 0.0 1019.3 12.3
2016-Jun-18 19:00N 58°12' W 006°48'0 0.0 1019.6 12.4
2016-Jun-18 18:00N 58°12' W 006°48'0 0.0 1019.6 12.5
2016-Jun-18 17:00N 58°12' W 006°48'9 8.7 1019.6 13.9
2016-Jun-18 16:00N 58°18' W 007°00'9 8.7 1019.4 11.6
2016-Jun-18 15:00N 58°12' W 007°12'1111.2 1019.5 11.3
2016-Jun-18 14:00N 58°06' W 007°30'1111.3 1020.0 11.0
2016-Jun-18 13:00N 58°00' W 007°48'9 8.7 1021.0 11.2
2016-Jun-18 12:00N 57°54' W 008°00'0 0.0 1021.1 11.2
2016-Jun-18 11:00N 57°54' W 008°00'3 3.2 1021.0 10.7
2016-Jun-18 10:00N 57°54' W 007°54'10 9.6 1020.9 10.7
2016-Jun-18 09:00N 57°54' W 007°36'1312.8 1021.1 10.6
2016-Jun-18 08:00N 57°54' W 007°12'6 6.4 1020.6 10.2
2016-Jun-18 07:00N 57°54' W 007°00'0 0.0 1020.4 10.0
2016-Jun-18 06:00N 57°54' W 007°00'0 0.0 1020.1 9.8
2016-Jun-18 05:00N 57°54' W 007°00'0 0.0 1019.8 9.8
2016-Jun-18 04:00N 57°54' W 007°00'0 0.0 1019.9 10.1
2016-Jun-18 03:00N 57°54' W 007°00'0 0.0 1019.9 10.0
2016-Jun-18 02:00N 57°54' W 007°00'0 0.0 1019.8 10.0
2016-Jun-18 01:00N 57°54' W 007°00'0 0.0 1019.6 10.0
2016-Jun-18 00:00N 57°54' W 007°00'0 0.0 1019.7 10.4
2016-Jun-17 20:00N 57°54' W 007°00'0 0.0 1018.2 10.7
2016-Jun-17 19:00N 57°54' W 007°00'3 3.2 1017.6 11.1
2016-Jun-17 18:00N 57°54' W 007°06'1212.4 1016.3 11.4
2016-Jun-17 17:00N 57°42' W 007°00'7 6.8 1016.0 11.8
2016-Jun-17 16:00N 57°36' W 006°54'1212.0 1015.4 10.7
2016-Jun-17 15:00N 57°24' W 006°54'1212.4 1014.3 11.1
2016-Jun-17 14:00N 57°12' W 006°48'7 6.8 1013.6 11.3
2016-Jun-17 13:00N 57°06' W 006°42'1413.7 1012.3 11.6
2016-Jun-17 12:00N 56°54' W 006°30'7 6.8 1011.8 11.7
2016-Jun-17 11:00N 56°48' W 006°24'1211.6 1012.0 11.5
2016-Jun-17 10:00N 56°42' W 006°06'1413.7 1011.5 11.6
2016-Jun-17 09:00N 56°30' W 005°54'10 9.9 1010.6 12.5
2016-Jun-17 08:00N 56°30' W 005°36'7 6.9 1010.1 11.3
2016-Jun-17 07:00N 56°24' W 005°30'0 0.0 1010.0 10.7
2016-Jun-17 06:00N 56°24' W 005°30'0 0.0 1009.5 10.4
2016-Jun-17 05:00N 56°24' W 005°30'0 0.0 1009.0 10.3 6.6
2016-Jun-17 03:00N 56°24' W 005°30'0 0.0 1008.6 10.4 6.9
2016-Jun-17 02:00N 56°24' W 005°30'0 0.0 1008.4 10.1 7.0
2016-Jun-17 01:00N 56°24' W 005°30'0 0.0 1008.5 10.2
2016-Jun-17 00:00N 56°24' W 005°30'0 0.0 1008.4 10.9 7.2
2016-Jun-16 23:00N 56°24' W 005°30'0 0.0 1008.2 11.1 7.8
2016-Jun-16 22:00N 56°24' W 005°30'0 0.0 1008.1 11.1 7.7
2016-Jun-16 20:00N 56°24' W 005°30'0 0.0 1007.4 11.9
2016-Jun-16 19:00N 56°24' W 005°30'0 0.0 1007.0 12.2
2016-Jun-16 18:00N 56°24' W 005°30'0 0.0 1006.7 12.4
2016-Jun-16 17:00N 56°24' W 005°30'0 0.0 1006.4 12.6
2016-Jun-16 16:00N 56°24' W 005°30'0 0.0 1006.4 12.8
2016-Jun-16 14:00N 56°24' W 005°30'0 0.0 1006.1 12.6
2016-Jun-16 13:00N 56°24' W 005°30'0 0.0 1006.2 12.7
2016-Jun-16 12:00N 56°24' W 005°30'0 0.0 1006.2 12.6
2016-Jun-16 11:00N 56°24' W 005°30'0 0.0 1006.3 12.0
2016-Jun-16 10:00N 56°24' W 005°30'0 0.0 1006.1 11.5
2016-Jun-16 09:00N 56°24' W 005°30'0 0.0 1006.0 11.3
2016-Jun-16 08:00N 56°24' W 005°30'0 0.0 1005.8 11.2
2016-Jun-16 07:00N 56°24' W 005°30'   1005.4 10.4
Track history (hours):
 
Tides and Currents Weather Stations Pressure Air Temp Water Temp Dewpoint Dewpoint Depression Visibility Wind Speed Wind Dir Waves Ship Positions

Callsign AMOUK35 (name unknown)

Last reported at 2016-Jun-26 00:00 UTC. Time now 2016-Jun-26 01:03 UTC.
Position N 59°00' W 003°18'.

Barometer 1017.8 mb
Air temperature 10.6 ° C

Date/timePositionNaut miles runAvg speedWind from/ knotsBaromVisibWave heightAir tempDewpointWater temp
2016-Jun-26 00:00N 59°00' W 003°18'0 0.0 1017.8 10.6
2016-Jun-25 23:00N 59°00' W 003°18'0 0.0 1018.2 11.1 9.8
2016-Jun-25 22:00N 59°00' W 003°18'0 0.0 1018.6 11.4 9.6
2016-Jun-25 20:00N 59°00' W 003°18'0 0.0 1018.4 12.8 9.3
2016-Jun-25 19:00N 59°00' W 003°18'0 0.0 1018.3 14.6
2016-Jun-25 18:00N 59°00' W 003°18'0 0.0 1018.4 14.8
2016-Jun-25 17:00N 59°00' W 003°18'0 0.0 1018.6 14.7
2016-Jun-25 16:00N 59°00' W 003°18'0 0.0 1018.9 14.310.1
2016-Jun-25 15:00N 59°00' W 003°18'0 0.0 1019.0 12.710.7
2016-Jun-25 14:00N 59°00' W 003°18'6 6.0 1018.8 14.211.0
2016-Jun-25 13:00N 58°54' W 003°18'0 0.0 1018.7 12.2
2016-Jun-25 12:00N 58°54' W 003°18'9 8.6 1018.5 12.1
2016-Jun-25 11:00N 58°48' W 003°30'6 6.0 1018.4 11.210.2
2016-Jun-25 10:00N 58°42' W 003°30'6 6.0 1018.6 10.7
2016-Jun-25 09:00N 58°36' W 003°30'0 0.0 1018.7 12.4
2016-Jun-25 08:00N 58°36' W 003°30'0 0.0 1018.8 11.510.3
2016-Jun-25 07:00N 58°36' W 003°30'0 0.0 1018.3 11.410.4
2016-Jun-25 06:00N 58°36' W 003°30'0 0.0 1018.0 11.3
2016-Jun-25 05:00N 58°36' W 003°30'0 0.0 1017.8 11.0
2016-Jun-25 04:00N 58°36' W 003°30'0 0.0 1017.5 10.9
2016-Jun-25 03:00N 58°36' W 003°30'0 0.0 1017.2 11.3
2016-Jun-25 02:00N 58°36' W 003°30'0 0.0 1017.3 10.9
2016-Jun-25 01:00N 58°36' W 003°30'0 0.0 1017.3 10.6
2016-Jun-25 00:00N 58°36' W 003°30'0 0.0 1017.5 11.3
2016-Jun-24 23:00N 58°36' W 003°30'0 0.0 1017.3 10.8
2016-Jun-24 22:00N 58°36' W 003°30'0 0.0 1017.2 11.4
2016-Jun-24 21:00N 58°36' W 003°30'0 0.0 1017.1 11.1
2016-Jun-24 20:00N 58°36' W 003°30'0 0.0 1016.6 11.9
2016-Jun-24 19:00N 58°36' W 003°30'0 0.0 1016.4 12.9
2016-Jun-24 18:00N 58°36' W 003°30'0 0.0 1016.2 12.610.8
2016-Jun-24 17:00N 58°36' W 003°30'0 0.0 1016.0 12.8
2016-Jun-24 16:00N 58°36' W 003°30'0 0.0 1015.8 14.4
2016-Jun-24 15:00N 58°36' W 003°30'0 0.0 1015.4 13.4
2016-Jun-24 14:00N 58°36' W 003°30'0 0.0 1015.0 12.5
2016-Jun-24 13:00N 58°36' W 003°30'0 0.0 1014.6 11.9
2016-Jun-24 12:00N 58°36' W 003°30'0 0.0 1014.5 10.510.3
2016-Jun-24 11:00N 58°36' W 003°30'0 0.0 1014.2 10.9
2016-Jun-24 10:00N 58°36' W 003°30'0 0.0 1014.3 11.4
2016-Jun-24 09:00N 58°36' W 003°30'3 3.1 1014.5 10.8
2016-Jun-24 08:00N 58°36' W 003°36'9 9.4 1014.0 9.6
2016-Jun-24 07:00N 58°36' W 003°54'9 9.4 1013.5 9.5
2016-Jun-24 06:00N 58°36' W 004°12'9 8.7 1013.1 9.9
2016-Jun-24 05:00N 58°42' W 004°24'9 9.4 1012.7 10.1
2016-Jun-24 04:00N 58°42' W 004°42'6 6.2 1012.5 10.7
2016-Jun-24 03:00N 58°42' W 004°54'9 8.7 1013.0 11.1
2016-Jun-24 02:00N 58°36' W 005°06'9 8.7 1012.4 11.7
2016-Jun-24 01:00N 58°30' W 005°18'7 6.8 1012.6 13.6
2016-Jun-24 00:00N 58°24' W 005°24'9 8.7 1012.9 12.5
2016-Jun-23 23:00N 58°18' W 005°36'1413.6 1012.8 12.5
2016-Jun-23 22:00N 58°06' W 005°48'9 8.7 1013.1 12.7
2016-Jun-23 21:00N 58°00' W 006°00'7 6.8 1013.2 12.6
2016-Jun-23 20:00N 57°54' W 006°06'1413.6 1013.1 13.0
2016-Jun-23 19:00N 57°42' W 006°18'1111.3 1013.2 13.5
2016-Jun-23 18:00N 57°36' W 006°36'9 8.8 1013.2 13.0
2016-Jun-23 17:00N 57°30' W 006°48'7 6.8 1013.4 13.1
2016-Jun-23 16:00N 57°24' W 006°54'1212.4 1013.5 12.6
2016-Jun-23 15:00N 57°12' W 007°00'9 8.9 1013.8 12.3
2016-Jun-23 14:00N 57°06' W 007°12'7 6.5 1014.1 12.9
2016-Jun-23 13:00N 57°06' W 007°24'0 0.0 1013.6 13.8
2016-Jun-23 12:00N 57°06' W 007°24'0 0.0 1013.5 12.6
2016-Jun-23 11:00N 57°06' W 007°24'7 6.5 1013.6 13.2
2016-Jun-23 10:00N 57°06' W 007°12'6 6.0 1013.4 12.4
2016-Jun-23 09:00N 57°12' W 007°12'1212.0 1013.4 11.9
2016-Jun-23 08:00N 57°24' W 007°12'3 3.2 1012.9 11.7
2016-Jun-23 07:00N 57°24' W 007°18'0 0.0 1013.2 13.3
2016-Jun-23 06:00N 57°24' W 007°18'0 0.0 1013.2 12.7
2016-Jun-23 05:00N 57°24' W 007°18'0 0.0 1013.0 12.8
2016-Jun-23 04:00N 57°24' W 007°18'0 0.0 1013.2 12.8
2016-Jun-23 03:00N 57°24' W 007°18'0 0.0 1013.3 13.1
2016-Jun-23 02:00N 57°24' W 007°18'0 0.0 1013.4 13.3
2016-Jun-23 01:00N 57°24' W 007°18'0 0.0 1013.3 12.8
2016-Jun-23 00:00N 57°24' W 007°18'0 0.0 1013.4 12.8
2016-Jun-22 23:00N 57°24' W 007°18'0 0.0 1013.1 12.9
2016-Jun-22 22:00N 57°24' W 007°18'0 0.0 1012.8 13.4
2016-Jun-22 21:00N 57°24' W 007°18'0 0.0 1012.4 13.8
2016-Jun-22 20:00N 57°24' W 007°18'0 0.0 1012.1 14.4
2016-Jun-22 19:00N 57°24' W 007°18'0 0.0 1011.8 14.7
2016-Jun-22 18:00N 57°24' W 007°18'0 0.0 1011.6 14.6
2016-Jun-22 17:00N 57°24' W 007°18'0 0.0 1011.7 15.1
2016-Jun-22 16:00N 57°24' W 007°18'3 3.2 1011.7 15.9
2016-Jun-22 15:00N 57°24' W 007°12'0 0.0 1011.3 14.0
2016-Jun-22 14:00N 57°24' W 007°12'0 0.0 1011.0 13.9
2016-Jun-22 13:00N 57°24' W 007°12'0 0.0 1010.9 13.7
2016-Jun-22 12:00N 57°24' W 007°12'0 0.0 1010.5 12.6
2016-Jun-22 11:00N 57°24' W 007°12'6 6.0 1009.9 12.1
2016-Jun-22 10:00N 57°30' W 007°12'0 0.0 1009.6 11.8
2016-Jun-22 09:00N 57°30' W 007°12'3 3.2 1009.7 13.4
2016-Jun-22 08:00N 57°30' W 007°06'6 6.0 1009.2 11.6
2016-Jun-22 07:00N 57°36' W 007°06'0 0.0 1009.0 12.5
2016-Jun-22 06:00N 57°36' W 007°06'0 0.0 1008.6 12.1
2016-Jun-22 05:00N 57°36' W 007°06'0 0.0 1008.2 11.6
2016-Jun-22 04:00N 57°36' W 007°06'0 0.0 1008.1 11.8
2016-Jun-22 03:00N 57°36' W 007°06'0 0.0 1007.8 12.0
2016-Jun-22 02:00N 57°36' W 007°06'0 0.0 1007.8 12.1
2016-Jun-22 01:00N 57°36' W 007°06'0 0.0 1007.9 11.9
2016-Jun-22 00:00N 57°36' W 007°06'0 0.0 1007.9 12.0
2016-Jun-21 23:00N 57°36' W 007°06'0 0.0 1007.7 12.4
2016-Jun-21 22:00N 57°36' W 007°06'0 0.0 1007.8 12.3
2016-Jun-21 21:00N 57°36' W 007°06'0 0.0 1007.7 12.3
2016-Jun-21 20:00N 57°36' W 007°06'0 0.0 1007.5 12.1
2016-Jun-21 19:00N 57°36' W 007°06'0 0.0 1007.2 12.3
2016-Jun-21 17:00N 57°36' W 007°06'0 0.0 1007.6 12.2
2016-Jun-21 16:00N 57°36' W 007°06'0 0.0 1007.6 13.1
2016-Jun-21 15:00N 57°36' W 007°06'0 0.0 1007.5 12.7
2016-Jun-21 14:00N 57°36' W 007°06'0 0.0 1007.2 12.4
2016-Jun-21 13:00N 57°36' W 007°06'0 0.0 1006.6 14.7
2016-Jun-21 12:00N 57°36' W 007°06'0 0.0 1006.5 14.1
2016-Jun-21 11:00N 57°36' W 007°06'0 0.0 1006.1 13.3
2016-Jun-21 10:00N 57°36' W 007°06'0 0.0 1005.9 11.9
2016-Jun-21 09:00N 57°36' W 007°06'0 0.0 1006.1 11.6
2016-Jun-21 08:00N 57°36' W 007°06'0 0.0 1005.7 11.5
2016-Jun-21 07:00N 57°36' W 007°06'0 0.0 1005.9 11.5
2016-Jun-21 06:00N 57°36' W 007°06'0 0.0 1006.1 11.5
2016-Jun-21 05:00N 57°36' W 007°06'0 0.0 1006.4 11.6
2016-Jun-21 04:00N 57°36' W 007°06'0 0.0 1006.8 11.4
2016-Jun-21 03:00N 57°36' W 007°06'0 0.0 1007.2 11.5
2016-Jun-21 02:00N 57°36' W 007°06'0 0.0 1007.7 11.3
2016-Jun-21 01:00N 57°36' W 007°06'0 0.0 1008.3 11.3
2016-Jun-21 00:00N 57°36' W 007°06'0 0.0 1008.4 11.6
2016-Jun-20 23:00N 57°36' W 007°06'0 0.0 1008.3 12.0
2016-Jun-20 22:00N 57°36' W 007°06'0 0.0 1008.2 11.7
2016-Jun-20 21:00N 57°36' W 007°06'0 0.0 1008.2 11.3
2016-Jun-20 20:00N 57°36' W 007°06'0 0.0 1007.8 11.6
2016-Jun-20 19:00N 57°36' W 007°06'0 0.0 1007.4 11.5
2016-Jun-20 18:00N 57°36' W 007°06'0 0.0 1006.9 12.5
2016-Jun-20 17:00N 57°36' W 007°06'0 0.0 1006.2 12.5
2016-Jun-20 16:00N 57°36' W 007°06'9 8.8 1006.0 12.6
2016-Jun-20 15:00N 57°42' W 006°54'9 8.8 1004.9 12.2
2016-Jun-20 14:00N 57°48' W 006°42'9 8.8 1004.5 12.2
2016-Jun-20 13:00N 57°54' W 006°30'3 3.2 1004.2 11.6
2016-Jun-20 12:00N 57°54' W 006°24'0 0.0 1003.4 11.1
2016-Jun-20 11:00N 57°54' W 006°24'7 6.8 1003.1 11.1
2016-Jun-20 10:00N 58°00' W 006°18'1212.0 1001.5 11.8
2016-Jun-20 09:00N 58°12' W 006°18'3 3.2 1001.3 12.5
2016-Jun-20 08:00N 58°12' W 006°24'0 0.0 1001.4 12.6
2016-Jun-20 07:00N 58°12' W 006°24'0 0.0 1001.1 11.5
2016-Jun-20 06:00N 58°12' W 006°24'0 0.0 1000.6 11.210.3
2016-Jun-20 05:00N 58°12' W 006°24'0 0.0 1000.5 11.610.5
2016-Jun-20 04:00N 58°12' W 006°24'0 0.0 1000.4 11.1
2016-Jun-20 03:00N 58°12' W 006°24'0 0.0 1000.4 11.3
2016-Jun-20 02:00N 58°12' W 006°24'0 0.0 1000.5 11.5
2016-Jun-20 01:00N 58°12' W 006°24'0 0.0 1000.4 11.8
2016-Jun-20 00:00N 58°12' W 006°24'0 0.0 999.7 12.2
2016-Jun-19 23:00N 58°12' W 006°24'0 0.0 999.3 12.7
2016-Jun-19 22:00N 58°12' W 006°24'0 0.0 999.5 13.0
2016-Jun-19 21:00N 58°12' W 006°24'0 0.0 1000.3 12.412.1
2016-Jun-19 20:00N 58°12' W 006°24'0 0.0 1001.0 12.011.6
2016-Jun-19 19:00N 58°12' W 006°24'0 0.0 1002.3 12.6
2016-Jun-19 17:00N 58°12' W 006°24'0 0.0 1005.4 12.6
2016-Jun-19 16:00N 58°12' W 006°24'0 0.0 1007.2 12.9
2016-Jun-19 15:00N 58°12' W 006°24'6 6.3 1008.8 14.0
2016-Jun-19 14:00N 58°12' W 006°12'7 6.8 1010.2 13.3
2016-Jun-19 13:00N 58°18' W 006°06'1212.0 1011.6 12.4
2016-Jun-19 12:00N 58°30' W 006°06'6 6.3 1012.2 12.4
2016-Jun-19 11:00N 58°30' W 006°18'1111.2 1013.3 12.2
2016-Jun-19 10:00N 58°24' W 006°36'6 6.3 1013.3 11.9
2016-Jun-19 09:00N 58°24' W 006°48'6 6.0 1013.9 11.7
2016-Jun-19 08:00N 58°18' W 006°48'6 6.0 1014.1 11.7
2016-Jun-19 07:00N 58°12' W 006°48'0 0.0 1015.2 11.0
2016-Jun-19 06:00N 58°12' W 006°48'0 0.0 1015.3 10.7
2016-Jun-19 05:00N 58°12' W 006°48'0 0.0 1015.9 11.1
2016-Jun-19 04:00N 58°12' W 006°48'0 0.0 1016.8 11.2
2016-Jun-19 03:00N 58°12' W 006°48'0 0.0 1017.2 11.3
2016-Jun-19 02:00N 58°12' W 006°48'0 0.0 1018.0 11.3
2016-Jun-19 01:00N 58°12' W 006°48'0 0.0 1018.4 11.5
2016-Jun-19 00:00N 58°12' W 006°48'0 0.0 1018.7 11.5
2016-Jun-18 23:00N 58°12' W 006°48'0 0.0 1019.0 11.5
2016-Jun-18 22:00N 58°12' W 006°48'0 0.0 1019.3 11.7
2016-Jun-18 21:00N 58°12' W 006°48'0 0.0 1019.3 12.1
2016-Jun-18 20:00N 58°12' W 006°48'0 0.0 1019.3 12.3
2016-Jun-18 19:00N 58°12' W 006°48'0 0.0 1019.6 12.4
2016-Jun-18 18:00N 58°12' W 006°48'0 0.0 1019.6 12.5
2016-Jun-18 17:00N 58°12' W 006°48'9 8.7 1019.6 13.9
2016-Jun-18 16:00N 58°18' W 007°00'9 8.7 1019.4 11.6
2016-Jun-18 15:00N 58°12' W 007°12'1111.2 1019.5 11.3
2016-Jun-18 14:00N 58°06' W 007°30'1111.3 1020.0 11.0
2016-Jun-18 13:00N 58°00' W 007°48'9 8.7 1021.0 11.2
2016-Jun-18 12:00N 57°54' W 008°00'0 0.0 1021.1 11.2
2016-Jun-18 11:00N 57°54' W 008°00'3 3.2 1021.0 10.7
2016-Jun-18 10:00N 57°54' W 007°54'10 9.6 1020.9 10.7
2016-Jun-18 09:00N 57°54' W 007°36'1312.8 1021.1 10.6
2016-Jun-18 08:00N 57°54' W 007°12'6 6.4 1020.6 10.2
2016-Jun-18 07:00N 57°54' W 007°00'0 0.0 1020.4 10.0
2016-Jun-18 06:00N 57°54' W 007°00'0 0.0 1020.1 9.8
2016-Jun-18 05:00N 57°54' W 007°00'0 0.0 1019.8 9.8
2016-Jun-18 04:00N 57°54' W 007°00'0 0.0 1019.9 10.1
2016-Jun-18 03:00N 57°54' W 007°00'0 0.0 1019.9 10.0
2016-Jun-18 02:00N 57°54' W 007°00'0 0.0 1019.8 10.0
2016-Jun-18 01:00N 57°54' W 007°00'0 0.0 1019.6 10.0
2016-Jun-18 00:00N 57°54' W 007°00'0 0.0 1019.7 10.4
2016-Jun-17 20:00N 57°54' W 007°00'0 0.0 1018.2 10.7
2016-Jun-17 19:00N 57°54' W 007°00'3 3.2 1017.6 11.1
2016-Jun-17 18:00N 57°54' W 007°06'1212.4 1016.3 11.4
2016-Jun-17 17:00N 57°42' W 007°00'7 6.8 1016.0 11.8
2016-Jun-17 16:00N 57°36' W 006°54'1212.0 1015.4 10.7
2016-Jun-17 15:00N 57°24' W 006°54'1212.4 1014.3 11.1
2016-Jun-17 14:00N 57°12' W 006°48'7 6.8 1013.6 11.3
2016-Jun-17 13:00N 57°06' W 006°42'1413.7 1012.3 11.6
2016-Jun-17 12:00N 56°54' W 006°30'7 6.8 1011.8 11.7
2016-Jun-17 11:00N 56°48' W 006°24'1211.6 1012.0 11.5
2016-Jun-17 10:00N 56°42' W 006°06'1413.7 1011.5 11.6
2016-Jun-17 09:00N 56°30' W 005°54'10 9.9 1010.6 12.5
2016-Jun-17 08:00N 56°30' W 005°36'7 6.9 1010.1 11.3
2016-Jun-17 07:00N 56°24' W 005°30'0 0.0 1010.0 10.7
2016-Jun-17 06:00N 56°24' W 005°30'0 0.0 1009.5 10.4
2016-Jun-17 05:00N 56°24' W 005°30'0 0.0 1009.0 10.3 6.6
2016-Jun-17 03:00N 56°24' W 005°30'0 0.0 1008.6 10.4 6.9
2016-Jun-17 02:00N 56°24' W 005°30'0 0.0 1008.4 10.1 7.0
2016-Jun-17 01:00N 56°24' W 005°30'0 0.0 1008.5 10.2
2016-Jun-17 00:00N 56°24' W 005°30'0 0.0 1008.4 10.9 7.2
2016-Jun-16 23:00N 56°24' W 005°30'0 0.0 1008.2 11.1 7.8
2016-Jun-16 22:00N 56°24' W 005°30'0 0.0 1008.1 11.1 7.7
2016-Jun-16 20:00N 56°24' W 005°30'0 0.0 1007.4 11.9
2016-Jun-16 19:00N 56°24' W 005°30'0 0.0 1007.0 12.2
2016-Jun-16 18:00N 56°24' W 005°30'0 0.0 1006.7 12.4
2016-Jun-16 17:00N 56°24' W 005°30'0 0.0 1006.4 12.6
2016-Jun-16 16:00N 56°24' W 005°30'0 0.0 1006.4 12.8
2016-Jun-16 14:00N 56°24' W 005°30'0 0.0 1006.1 12.6
2016-Jun-16 13:00N 56°24' W 005°30'0 0.0 1006.2 12.7
2016-Jun-16 12:00N 56°24' W 005°30'0 0.0 1006.2 12.6
2016-Jun-16 11:00N 56°24' W 005°30'0 0.0 1006.3 12.0
2016-Jun-16 10:00N 56°24' W 005°30'0 0.0 1006.1 11.5
2016-Jun-16 09:00N 56°24' W 005°30'0 0.0 1006.0 11.3
2016-Jun-16 08:00N 56°24' W 005°30'0 0.0 1005.8 11.2
2016-Jun-16 07:00N 56°24' W 005°30'   1005.4 10.4

Dump ship's entire track history